createdAt,value
2018-08-28T00:01:22.911Z,5.40
2018-08-28T00:03:52.065Z,8.47
2018-08-28T00:06:20.949Z,8.37
2018-08-28T00:08:49.845Z,4.87
2018-08-28T00:11:18.298Z,3.60
2018-08-28T00:13:46.736Z,6.83
2018-08-28T00:16:15.169Z,4.77
2018-08-28T00:18:43.663Z,4.20
2018-08-28T00:21:12.083Z,5.27
2018-08-28T00:23:40.821Z,5.77
2018-08-28T00:26:09.733Z,3.03
2018-08-28T00:28:38.215Z,7.27
2018-08-28T00:31:06.632Z,7.33
2018-08-28T00:33:35.125Z,6.50
2018-08-28T00:36:03.549Z,5.97
2018-08-28T00:38:32.009Z,6.27
2018-08-28T00:41:00.491Z,3.63
2018-08-28T00:43:28.937Z,2.20
2018-08-28T00:45:57.401Z,4.23
2018-08-28T00:48:25.941Z,5.50
2018-08-28T00:50:54.550Z,5.47
2018-08-28T00:53:22.982Z,4.40
2018-08-28T00:55:51.424Z,3.47
2018-08-28T00:58:19.898Z,4.57
2018-08-28T01:00:48.334Z,4.17
2018-08-28T01:03:16.775Z,3.17
2018-08-28T01:05:45.200Z,5.60
2018-08-28T01:08:13.679Z,4.37
2018-08-28T01:10:42.128Z,7.50
2018-08-28T01:13:10.680Z,6.50
2018-08-28T01:15:39.132Z,4.40
2018-08-28T01:18:07.865Z,4.37
2018-08-28T01:20:36.434Z,6.10
2018-08-28T01:23:04.893Z,4.43
2018-08-28T01:25:33.349Z,6.30
2018-08-28T01:28:02.009Z,5.10
2018-08-28T01:30:35.078Z,7.23
2018-08-28T01:33:05.178Z,4.67
2018-08-28T01:35:33.982Z,6.33
2018-08-28T01:38:02.484Z,3.67
2018-08-28T01:40:31.457Z,4.43
2018-08-28T01:43:00.541Z,4.03
2018-08-28T01:45:29.217Z,4.40
2018-08-28T01:47:57.794Z,3.97
2018-08-28T01:50:26.311Z,3.37
2018-08-28T01:52:54.847Z,5.33
2018-08-28T01:55:23.292Z,5.17
2018-08-28T01:57:51.832Z,4.37
2018-08-28T02:00:20.420Z,3.53
2018-08-28T02:02:48.893Z,5.33
2018-08-28T02:05:17.339Z,5.60
2018-08-28T02:07:45.806Z,4.70
2018-08-28T02:10:14.235Z,4.30
2018-08-28T02:12:42.738Z,4.13
2018-08-28T02:15:11.279Z,6.43
2018-08-28T02:17:39.910Z,4.50
2018-08-28T02:20:08.467Z,5.00
2018-08-28T02:22:37.061Z,3.50
2018-08-28T02:25:06.478Z,4.37
2018-08-28T02:27:35.155Z,4.73
2018-08-28T02:30:03.783Z,6.20
2018-08-28T02:32:32.305Z,5.80
2018-08-28T02:35:00.726Z,4.57
2018-08-28T02:37:29.295Z,5.47
2018-08-28T02:39:57.886Z,7.33
2018-08-28T02:42:26.330Z,9.97
2018-08-28T02:44:54.752Z,4.20
2018-08-28T02:47:23.195Z,3.77
2018-08-28T02:49:51.620Z,4.67
2018-08-28T02:52:20.208Z,4.67
2018-08-28T02:54:48.685Z,3.57
2018-08-28T02:57:17.103Z,3.73
2018-08-28T02:59:45.551Z,3.90
2018-08-28T03:02:14.225Z,4.53
2018-08-28T03:04:42.689Z,3.80
2018-08-28T03:07:11.387Z,4.43
2018-08-28T03:09:39.801Z,4.10
2018-08-28T03:12:08.255Z,4.77
2018-08-28T03:14:36.717Z,3.27
2018-08-28T03:17:05.359Z,6.30
2018-08-28T03:19:33.879Z,4.27
2018-08-28T03:22:02.495Z,5.17
2018-08-28T03:24:30.928Z,3.90
2018-08-28T03:26:59.357Z,4.47
2018-08-28T03:29:34.522Z,4.80
2018-08-28T03:32:02.982Z,4.30
2018-08-28T03:34:31.431Z,4.47
2018-08-28T03:36:59.895Z,2.53
2018-08-28T03:39:28.363Z,4.07
2018-08-28T03:41:56.819Z,4.97
2018-08-28T03:44:25.266Z,3.90
2018-08-28T03:46:53.747Z,3.53
2018-08-28T03:49:22.213Z,8.67
2018-08-28T03:51:50.702Z,4.80
2018-08-28T03:54:19.149Z,3.57
2018-08-28T03:56:47.727Z,3.63
2018-08-28T03:59:16.196Z,4.03
2018-08-28T04:01:44.707Z,4.87
2018-08-28T04:04:13.123Z,5.93
2018-08-28T04:06:41.756Z,2.67
2018-08-28T04:09:10.622Z,5.63
2018-08-28T04:11:39.165Z,3.80
2018-08-28T04:14:07.697Z,3.93
2018-08-28T04:16:36.133Z,7.93
2018-08-28T04:19:04.623Z,4.90
2018-08-28T04:21:33.141Z,5.17
2018-08-28T04:24:01.649Z,6.20
2018-08-28T04:26:30.194Z,4.37
2018-08-28T04:28:58.643Z,5.17
2018-08-28T04:31:27.147Z,5.63
2018-08-28T04:33:55.598Z,5.17
2018-08-28T04:36:24.073Z,3.07
2018-08-28T04:38:52.709Z,3.70
2018-08-28T04:41:21.163Z,4.87
2018-08-28T04:43:49.609Z,4.23
2018-08-28T04:46:18.105Z,2.90
2018-08-28T04:48:46.528Z,5.20
2018-08-28T04:51:15.237Z,4.67
2018-08-28T04:53:43.717Z,4.93
2018-08-28T04:56:12.182Z,3.30
2018-08-28T04:58:40.633Z,4.33
2018-08-28T05:01:09.135Z,4.23
2018-08-28T05:03:37.593Z,4.13
2018-08-28T05:06:06.121Z,6.93
2018-08-28T05:08:34.563Z,6.77
2018-08-28T05:11:03.143Z,4.63
2018-08-28T05:13:31.688Z,3.80
2018-08-28T05:16:00.189Z,4.80
2018-08-28T05:18:28.886Z,6.00
2018-08-28T05:20:57.537Z,10.90
2018-08-28T05:23:26.001Z,5.20
2018-08-28T05:25:54.439Z,5.30
2018-08-28T05:28:22.950Z,5.17
2018-08-28T05:30:51.530Z,4.20
2018-08-28T05:33:19.981Z,4.43
2018-08-28T05:35:48.467Z,6.07
2018-08-28T05:38:17.033Z,3.57
2018-08-28T05:40:45.559Z,3.27
2018-08-28T05:43:14.036Z,4.30
2018-08-28T05:45:42.487Z,5.30
2018-08-28T05:48:10.948Z,6.23
2018-08-28T05:50:39.438Z,4.67
2018-08-28T05:53:08.183Z,6.40
2018-08-28T05:55:36.673Z,4.50
2018-08-28T05:58:05.145Z,4.63
2018-08-28T06:00:33.636Z,5.63
2018-08-28T06:03:03.285Z,4.63
2018-08-28T06:05:31.875Z,6.10
2018-08-28T06:08:00.426Z,4.37
2018-08-28T06:10:28.920Z,4.73
2018-08-28T06:12:57.491Z,8.63
2018-08-28T06:15:26.063Z,5.40
2018-08-28T06:17:54.504Z,4.57
2018-08-28T06:20:23.148Z,4.27
2018-08-28T06:22:51.709Z,6.47
2018-08-28T06:25:20.162Z,5.93
2018-08-28T06:27:48.617Z,3.27
2018-08-28T06:30:17.076Z,6.60
2018-08-28T06:32:45.508Z,3.77
2018-08-28T06:35:14.002Z,8.23
2018-08-28T06:37:42.449Z,6.30
2018-08-28T06:40:11.750Z,6.40
2018-08-28T06:42:40.205Z,4.80
2018-08-28T06:45:08.694Z,4.77
2018-08-28T06:47:37.211Z,8.80
2018-08-28T06:50:07.048Z,3.73
2018-08-28T06:52:35.491Z,7.13
2018-08-28T06:55:03.984Z,6.63
2018-08-28T06:57:32.445Z,5.40
2018-08-28T07:00:01.042Z,6.83
2018-08-28T07:02:31.992Z,5.80
2018-08-28T07:05:00.536Z,5.50
2018-08-28T07:07:30.321Z,4.80
2018-08-28T07:09:58.904Z,5.27
2018-08-28T07:12:27.791Z,8.43
2018-08-28T07:14:56.234Z,6.37
2018-08-28T07:17:24.858Z,5.83
2018-08-28T07:19:53.464Z,8.07
2018-08-28T07:22:21.912Z,7.37
2018-08-28T07:24:50.386Z,6.20
2018-08-28T07:27:18.861Z,7.37
2018-08-28T07:29:47.350Z,6.83
2018-08-28T07:32:15.817Z,5.07
2018-08-28T07:34:44.321Z,6.90
2018-08-28T07:37:12.916Z,9.20
2018-08-28T07:39:41.738Z,5.27
2018-08-28T07:42:10.629Z,5.73
2018-08-28T07:44:39.284Z,5.93
2018-08-28T07:47:07.872Z,5.80
2018-08-28T07:49:36.328Z,6.77
2018-08-28T07:52:04.812Z,6.03
2018-08-28T07:54:33.308Z,6.90
2018-08-28T07:57:01.770Z,5.20
2018-08-28T07:59:30.294Z,5.50
2018-08-28T08:01:58.755Z,4.83
2018-08-28T08:04:27.217Z,6.97
2018-08-28T08:06:55.738Z,6.07
2018-08-28T08:09:24.352Z,7.00
2018-08-28T08:11:52.809Z,6.83
2018-08-28T08:14:21.348Z,5.60
2018-08-28T08:16:49.864Z,5.23
2018-08-28T08:19:18.314Z,5.63
2018-08-28T08:21:46.752Z,7.03
2018-08-28T08:24:15.314Z,3.90
2018-08-28T08:26:43.899Z,7.40
2018-08-28T08:29:12.453Z,6.47
2018-08-28T08:31:40.912Z,6.27
2018-08-28T08:34:09.454Z,5.60
2018-08-28T08:36:37.919Z,6.67
2018-08-28T08:39:08.326Z,5.77
2018-08-28T08:41:37.064Z,7.77
2018-08-28T08:44:05.839Z,4.83
2018-08-28T08:46:34.357Z,4.90
2018-08-28T08:49:02.845Z,5.37
2018-08-28T08:51:31.321Z,6.70
2018-08-28T08:53:59.759Z,4.47
2018-08-28T08:56:28.257Z,5.80
2018-08-28T08:58:56.807Z,4.83
2018-08-28T09:01:25.299Z,5.77
2018-08-28T09:03:53.783Z,5.57
2018-08-28T09:06:22.265Z,5.00
2018-08-28T09:08:50.765Z,4.07
2018-08-28T09:11:19.352Z,6.13
2018-08-28T09:13:47.801Z,5.47
2018-08-28T09:16:16.306Z,5.17
2018-08-28T09:18:44.757Z,5.53
2018-08-28T09:21:13.260Z,4.90
2018-08-28T09:23:41.712Z,4.07
2018-08-28T09:26:10.157Z,4.03
2018-08-28T09:28:38.833Z,5.30
2018-08-28T09:31:07.408Z,4.23
2018-08-28T09:33:35.861Z,4.73
2018-08-28T09:36:04.299Z,5.10
2018-08-28T09:38:32.755Z,5.73
2018-08-28T09:41:01.277Z,6.17
2018-08-28T09:43:29.744Z,4.17
2018-08-28T09:45:58.195Z,4.90
2018-08-28T09:48:26.828Z,4.60
2018-08-28T09:50:55.288Z,5.30
2018-08-28T09:53:23.756Z,4.47
2018-08-28T09:55:52.187Z,3.97
2018-08-28T09:58:20.681Z,4.67
2018-08-28T10:00:54.441Z,4.07
2018-08-28T10:03:23.025Z,4.20
2018-08-28T10:05:52.334Z,5.03
2018-08-28T10:08:20.805Z,4.10
2018-08-28T10:10:49.298Z,4.13
2018-08-28T10:13:17.772Z,3.23
2018-08-28T10:15:46.227Z,3.63
2018-08-28T10:18:14.785Z,4.70
2018-08-28T10:20:43.239Z,3.63
2018-08-28T10:23:12.344Z,3.87
2018-08-28T10:25:42.427Z,3.60
2018-08-28T10:28:11.100Z,3.33
2018-08-28T10:30:39.569Z,4.00
2018-08-28T10:33:08.114Z,3.97
2018-08-28T10:35:36.649Z,4.23
2018-08-28T10:38:05.465Z,3.17
2018-08-28T10:40:33.979Z,4.17
2018-08-28T10:43:02.574Z,4.13
2018-08-28T10:45:31.165Z,4.67
2018-08-28T10:47:59.608Z,3.70
2018-08-28T10:50:28.092Z,3.97
2018-08-28T10:52:56.626Z,4.40
2018-08-28T10:55:25.809Z,4.30
2018-08-28T10:57:54.260Z,3.03
2018-08-28T11:00:25.650Z,4.87
2018-08-28T11:02:54.150Z,5.10
2018-08-28T11:05:22.634Z,5.17
2018-08-28T11:07:51.116Z,4.17
2018-08-28T11:10:19.597Z,6.13
2018-08-28T11:12:48.058Z,5.27
2018-08-28T11:15:16.752Z,5.00
2018-08-28T11:17:45.323Z,3.77
2018-08-28T11:20:13.985Z,5.80
2018-08-28T11:22:42.526Z,8.13
2018-08-28T11:25:11.000Z,4.97
2018-08-28T11:27:39.459Z,5.07
2018-08-28T11:30:08.086Z,5.50
2018-08-28T11:32:36.593Z,4.47
2018-08-28T11:35:05.148Z,5.53
2018-08-28T11:37:33.642Z,4.83
2018-08-28T11:40:02.262Z,4.17
2018-08-28T11:42:30.769Z,6.43
2018-08-28T11:44:59.227Z,3.30
2018-08-28T11:47:27.910Z,3.37
2018-08-28T11:49:56.339Z,3.63
2018-08-28T11:52:24.820Z,4.20
2018-08-28T11:54:53.294Z,5.97
2018-08-28T11:57:21.861Z,4.03
2018-08-28T11:59:50.452Z,3.97
2018-08-28T12:02:19.071Z,3.33
2018-08-28T12:04:47.517Z,3.50
2018-08-28T12:07:16.162Z,2.97
2018-08-28T12:09:44.703Z,4.40
2018-08-28T12:12:13.285Z,5.20
2018-08-28T12:14:41.780Z,4.53
2018-08-28T12:17:10.287Z,4.17
2018-08-28T12:19:38.747Z,3.60
2018-08-28T12:22:07.336Z,5.17
2018-08-28T12:24:36.126Z,4.13
2018-08-28T12:27:04.593Z,3.73
2018-08-28T12:29:33.125Z,5.53
2018-08-28T12:32:01.576Z,3.27
2018-08-28T12:34:30.016Z,5.80
2018-08-28T12:36:58.745Z,3.20
2018-08-28T12:39:27.223Z,5.03
2018-08-28T12:41:55.682Z,3.27
2018-08-28T12:44:24.131Z,3.33
2018-08-28T12:46:52.605Z,4.83
2018-08-28T12:49:21.082Z,3.93
2018-08-28T12:51:49.532Z,4.27
2018-08-28T12:54:18.063Z,4.27
2018-08-28T12:56:46.515Z,3.47
2018-08-28T12:59:14.987Z,5.87
2018-08-28T13:01:43.456Z,4.43
2018-08-28T13:04:11.921Z,4.20
2018-08-28T13:06:40.368Z,5.20
2018-08-28T13:09:08.829Z,6.57
2018-08-28T13:11:37.271Z,3.70
2018-08-28T13:14:05.767Z,7.47
2018-08-28T13:16:34.363Z,4.77
2018-08-28T13:19:02.831Z,4.17
2018-08-28T13:21:31.340Z,3.70
2018-08-28T13:23:59.818Z,3.20
2018-08-28T13:26:28.275Z,4.73
2018-08-28T13:28:56.745Z,3.27
2018-08-28T13:31:25.176Z,3.40
2018-08-28T13:33:53.607Z,3.80
2018-08-28T13:36:22.070Z,3.77
2018-08-28T13:38:50.594Z,4.63
2018-08-28T13:41:19.149Z,4.93
2018-08-28T13:43:47.605Z,3.00
2018-08-28T13:46:16.096Z,3.17
2018-08-28T13:48:44.540Z,5.10
2018-08-28T13:51:13.386Z,4.57
2018-08-28T13:53:41.930Z,3.27
2018-08-28T13:56:10.348Z,4.43
2018-08-28T13:58:38.844Z,4.67
2018-08-28T14:01:07.365Z,3.20
2018-08-28T14:03:35.789Z,5.73
2018-08-28T14:06:04.303Z,3.13
2018-08-28T14:08:32.781Z,3.53
2018-08-28T14:11:01.243Z,4.27
2018-08-28T14:13:29.850Z,3.77
2018-08-28T14:15:58.330Z,4.00
2018-08-28T14:18:26.839Z,3.60
2018-08-28T14:20:55.303Z,3.97
2018-08-28T14:23:23.802Z,3.37
2018-08-28T14:25:53.243Z,5.67
2018-08-28T14:28:21.710Z,4.43
2018-08-28T14:30:50.223Z,4.27
2018-08-28T14:33:18.705Z,4.37
2018-08-28T14:35:47.433Z,4.67
2018-08-28T14:38:15.677Z,5.23
2018-08-28T14:40:44.120Z,3.67
2018-08-28T14:43:12.576Z,4.53
2018-08-28T14:45:41.328Z,3.70
2018-08-28T14:48:09.806Z,5.30
2018-08-28T14:50:38.268Z,4.90
2018-08-28T14:53:06.829Z,3.80
2018-08-28T14:55:35.292Z,4.80
2018-08-28T14:58:03.809Z,3.43
2018-08-28T15:00:32.298Z,3.30
2018-08-28T15:03:00.744Z,4.33
2018-08-28T15:05:29.178Z,4.20
2018-08-28T15:07:57.637Z,4.37
2018-08-28T15:10:26.107Z,3.03
2018-08-28T15:12:54.553Z,3.37
2018-08-28T15:15:23.014Z,3.53
2018-08-28T15:17:51.526Z,3.83
2018-08-28T15:20:19.952Z,4.07
2018-08-28T15:22:48.423Z,4.63
2018-08-28T15:25:16.873Z,2.93
2018-08-28T15:27:45.333Z,4.47
2018-08-28T15:30:13.846Z,2.97
2018-08-28T15:32:42.335Z,3.90
2018-08-28T15:35:10.762Z,5.07
2018-08-28T15:37:39.273Z,6.40
2018-08-28T15:40:07.758Z,4.23
2018-08-28T15:42:36.213Z,3.37
2018-08-28T15:45:04.770Z,3.73
2018-08-28T15:47:33.230Z,6.27
2018-08-28T15:50:01.697Z,4.10
2018-08-28T15:52:30.181Z,3.87
2018-08-28T15:54:58.627Z,5.93
2018-08-28T15:57:27.074Z,3.23
2018-08-28T15:59:55.574Z,4.47
2018-08-28T16:02:24.509Z,3.93
2018-08-28T16:04:52.983Z,4.97
2018-08-28T16:07:21.479Z,2.20
2018-08-28T16:09:49.927Z,4.13
2018-08-28T16:12:18.392Z,4.63
2018-08-28T16:14:46.869Z,4.97
2018-08-28T16:17:15.430Z,4.17
2018-08-28T16:19:43.882Z,3.53
2018-08-28T16:22:13.480Z,4.83
2018-08-28T16:24:41.947Z,4.80
2018-08-28T16:27:10.449Z,3.07
2018-08-28T16:29:45.237Z,4.47
2018-08-28T16:32:13.675Z,4.37
2018-08-28T16:34:42.091Z,2.80
2018-08-28T16:37:10.603Z,3.80
2018-08-28T16:39:39.148Z,3.73
2018-08-28T16:42:08.233Z,3.77
2018-08-28T16:44:36.714Z,3.73
2018-08-28T16:47:05.218Z,2.47
2018-08-28T16:49:33.657Z,4.80
2018-08-28T16:52:02.240Z,4.70
2018-08-28T16:54:30.824Z,3.03
2018-08-28T16:56:59.344Z,3.60
2018-08-28T16:59:27.879Z,4.63
2018-08-28T17:01:56.345Z,5.10
2018-08-28T17:04:24.866Z,6.03
2018-08-28T17:06:53.329Z,5.03
2018-08-28T17:09:21.777Z,5.10
2018-08-28T17:11:50.253Z,7.70
2018-08-28T17:14:19.417Z,4.70
2018-08-28T17:16:48.143Z,3.80
2018-08-28T17:19:16.653Z,3.73
2018-08-28T17:21:45.171Z,4.43
2018-08-28T17:24:13.784Z,3.80
2018-08-28T17:26:42.296Z,5.33
2018-08-28T17:29:10.863Z,2.73
2018-08-28T17:31:39.370Z,3.77
2018-08-28T17:34:07.966Z,4.30
2018-08-28T17:36:36.454Z,2.63
2018-08-28T17:39:06.009Z,2.90
2018-08-28T17:41:34.582Z,3.93
2018-08-28T17:44:03.305Z,2.67
2018-08-28T17:46:31.736Z,3.23
2018-08-28T17:49:00.296Z,3.13
2018-08-28T17:51:28.857Z,4.37
2018-08-28T17:53:57.401Z,2.47
2018-08-28T17:56:25.877Z,3.27
2018-08-28T17:58:54.369Z,6.20
2018-08-28T18:01:22.906Z,5.27
2018-08-28T18:03:51.379Z,5.33
2018-08-28T18:06:19.805Z,4.63
2018-08-28T18:08:48.256Z,3.93
2018-08-28T18:11:16.777Z,4.50
2018-08-28T18:13:45.703Z,4.93
2018-08-28T18:16:14.278Z,4.73
2018-08-28T18:18:42.750Z,5.40
2018-08-28T18:21:11.473Z,4.47
2018-08-28T18:23:40.081Z,4.53
2018-08-28T18:26:08.602Z,5.47
2018-08-28T18:28:37.102Z,4.17
2018-08-28T18:31:05.767Z,5.03
2018-08-28T18:33:34.217Z,5.83
2018-08-28T18:36:02.763Z,3.33
2018-08-28T18:38:31.251Z,3.17
2018-08-28T18:40:59.922Z,4.03
2018-08-28T18:43:28.404Z,5.13
2018-08-28T18:45:56.869Z,7.20
2018-08-28T18:48:25.336Z,5.07
2018-08-28T18:50:53.955Z,5.83
2018-08-28T18:53:22.432Z,5.43
2018-08-28T18:55:50.884Z,5.20
2018-08-28T18:58:19.483Z,6.80
2018-08-28T19:00:47.948Z,5.43
2018-08-28T19:03:16.531Z,6.50
2018-08-28T19:05:45.066Z,5.20
2018-08-28T19:08:13.673Z,4.10
2018-08-28T19:10:42.204Z,6.83
2018-08-28T19:13:10.676Z,7.93
2018-08-28T19:15:39.264Z,5.53
2018-08-28T19:18:07.894Z,7.43
2018-08-28T19:20:36.477Z,5.90
2018-08-28T19:23:04.996Z,5.33
2018-08-28T19:25:33.466Z,5.13
2018-08-28T19:28:01.952Z,5.57
2018-08-28T19:30:30.446Z,4.87
2018-08-28T19:32:58.881Z,4.57
2018-08-28T19:35:27.362Z,8.40
2018-08-28T19:37:55.932Z,5.67
2018-08-28T19:40:24.373Z,6.37
2018-08-28T19:42:52.820Z,5.60
2018-08-28T19:45:21.304Z,5.27
2018-08-28T19:47:49.772Z,9.70
2018-08-28T19:50:18.255Z,6.13
2018-08-28T19:52:46.719Z,9.47
2018-08-28T19:55:15.325Z,5.80
2018-08-28T19:57:44.282Z,5.10
2018-08-28T20:00:12.863Z,9.30
2018-08-28T20:02:41.336Z,10.20
2018-08-28T20:05:09.844Z,5.10
2018-08-28T20:07:38.280Z,5.37
2018-08-28T20:10:07.030Z,5.97
2018-08-28T20:12:35.515Z,6.27
2018-08-28T20:15:04.072Z,7.57
2018-08-28T20:17:32.620Z,6.10
2018-08-28T20:20:01.112Z,7.27
2018-08-28T20:22:30.048Z,8.67
2018-08-28T20:24:58.649Z,6.57
2018-08-28T20:27:27.227Z,5.70
2018-08-28T20:29:55.701Z,8.30
2018-08-28T20:32:24.247Z,5.43
2018-08-28T20:34:52.785Z,6.67
2018-08-28T20:37:21.478Z,8.17
2018-08-28T20:39:49.919Z,8.27
2018-08-28T20:42:18.520Z,7.30
2018-08-28T20:44:47.069Z,8.57
2018-08-28T20:47:15.576Z,6.77
2018-08-28T20:49:44.184Z,6.03
2018-08-28T20:52:12.621Z,6.87
2018-08-28T20:54:41.047Z,7.77
2018-08-28T20:57:09.529Z,6.30
2018-08-28T20:59:37.991Z,8.73
2018-08-28T21:02:06.534Z,7.83
2018-08-28T21:04:34.992Z,10.47
2018-08-28T21:07:03.610Z,7.67
2018-08-28T21:09:32.076Z,10.23
2018-08-28T21:12:00.580Z,9.73
2018-08-28T21:14:29.061Z,7.57
2018-08-28T21:16:57.624Z,9.47
2018-08-28T21:19:26.239Z,10.20
2018-08-28T21:21:54.690Z,6.60
2018-08-28T21:24:23.162Z,8.63
2018-08-28T21:26:51.671Z,8.27
2018-08-28T21:29:20.215Z,10.00
2018-08-28T21:31:48.651Z,8.47
2018-08-28T21:34:17.109Z,10.43
2018-08-28T21:36:45.593Z,10.13
2018-08-28T21:39:14.168Z,10.13
2018-08-28T21:41:42.607Z,10.40
2018-08-28T21:44:11.470Z,12.10
2018-08-28T21:46:39.928Z,10.67
2018-08-28T21:49:08.412Z,11.40
2018-08-28T21:51:36.898Z,14.27
2018-08-28T21:54:05.939Z,13.27
2018-08-28T21:56:34.412Z,14.00
2018-08-28T21:59:03.011Z,13.67
2018-08-28T22:01:31.669Z,14.43
2018-08-28T22:04:00.136Z,13.87
2018-08-28T22:06:33.953Z,12.87
2018-08-28T22:09:02.480Z,12.97
2018-08-28T22:11:31.093Z,13.10
2018-08-28T22:13:59.550Z,15.43
2018-08-28T22:16:28.050Z,9.30
2018-08-28T22:18:56.622Z,11.27
2018-08-28T22:21:25.378Z,12.30
2018-08-28T22:23:53.963Z,11.80
2018-08-28T22:26:22.438Z,11.90
2018-08-28T22:28:50.987Z,15.37
2018-08-28T22:31:19.591Z,12.20
2018-08-28T22:33:48.166Z,12.53
2018-08-28T22:36:16.610Z,12.40
2018-08-28T22:38:45.138Z,12.63
2018-08-28T22:41:17.770Z,12.17
2018-08-28T22:43:46.281Z,13.60
2018-08-28T22:46:15.364Z,10.70
2018-08-28T22:48:43.804Z,13.87
2018-08-28T22:51:12.353Z,17.00
2018-08-28T22:53:40.784Z,12.47
2018-08-28T22:56:09.230Z,14.73
2018-08-28T22:58:37.696Z,11.47
2018-08-28T23:01:06.156Z,12.47
2018-08-28T23:03:34.590Z,12.57
2018-08-28T23:06:03.160Z,16.23
2018-08-28T23:08:36.182Z,11.97
2018-08-28T23:11:04.741Z,13.43
2018-08-28T23:13:33.278Z,12.40
2018-08-28T23:16:01.899Z,15.70
2018-08-28T23:18:30.419Z,13.63
2018-08-28T23:20:58.853Z,14.13
2018-08-28T23:23:27.331Z,16.70
2018-08-28T23:25:55.777Z,12.17
2018-08-28T23:28:24.227Z,12.90
2018-08-28T23:30:52.806Z,14.27
2018-08-28T23:33:21.349Z,11.93
2018-08-28T23:35:50.171Z,12.23
2018-08-28T23:38:18.856Z,14.47
2018-08-28T23:40:47.423Z,13.57
2018-08-28T23:43:15.863Z,15.57
2018-08-28T23:45:44.365Z,14.07
2018-08-28T23:48:12.848Z,12.83
2018-08-28T23:50:41.273Z,11.97
2018-08-28T23:53:09.817Z,13.80
2018-08-28T23:55:38.326Z,18.07
2018-08-28T23:58:07.010Z,14.60
